createdAt,value
2023-01-08T00:01:55.264Z,210.85
2023-01-08T00:04:23.485Z,66.68
2023-01-08T00:06:52.838Z,98.50
2023-01-08T00:09:22.523Z,97.28
2023-01-08T00:11:50.623Z,96.28
2023-01-08T00:14:21.334Z,94.15
2023-01-08T00:16:50.731Z,96.00
2023-01-08T00:19:19.381Z,100.13
2023-01-08T00:21:48.870Z,97.20
2023-01-08T00:24:18.202Z,95.65
2023-01-08T00:26:47.482Z,97.82
2023-01-08T00:29:16.089Z,94.88
2023-01-08T00:31:48.029Z,99.57
2023-01-08T00:34:16.109Z,107.07
2023-01-08T00:36:45.504Z,109.10
2023-01-08T00:39:14.834Z,104.85
2023-01-08T00:41:45.469Z,111.93
2023-01-08T00:44:14.797Z,99.13
2023-01-08T00:46:42.911Z,112.18
2023-01-08T00:49:13.569Z,110.40
2023-01-08T00:51:42.892Z,103.57
2023-01-08T00:54:11.903Z,103.22
2023-01-08T00:56:39.993Z,100.80
2023-01-08T00:59:09.355Z,97.63
2023-01-08T01:01:38.023Z,96.35
2023-01-08T01:04:07.492Z,100.70
2023-01-08T01:06:38.188Z,99.20
2023-01-08T01:09:09.175Z,99.68
2023-01-08T01:11:38.537Z,97.85
2023-01-08T01:14:07.988Z,103.80
2023-01-08T01:16:37.114Z,98.60
2023-01-08T01:19:07.797Z,101.68
2023-01-08T01:21:38.507Z,101.07
2023-01-08T01:24:09.199Z,104.07
2023-01-08T01:26:38.518Z,128.52
2023-01-08T01:29:08.010Z,102.43
2023-01-08T01:31:36.169Z,113.03
2023-01-08T01:34:04.419Z,106.32
2023-01-08T01:36:32.544Z,106.07
2023-01-08T01:39:02.062Z,103.13
2023-01-08T01:41:33.554Z,105.82
2023-01-08T01:44:39.514Z,100.20
2023-01-08T01:47:22.408Z,104.10
2023-01-08T01:49:57.935Z,97.70
2023-01-08T01:52:29.773Z,105.78
2023-01-08T01:55:00.858Z,107.43
2023-01-08T01:57:29.841Z,99.22
2023-01-08T02:00:00.471Z,101.68
2023-01-08T02:02:40.042Z,109.28
2023-01-08T02:05:09.514Z,182.32
2023-01-08T02:07:46.926Z,91.75
2023-01-08T02:10:22.395Z,99.03
2023-01-08T02:12:59.878Z,147.82
2023-01-08T02:15:39.851Z,73.13
2023-01-08T02:18:15.984Z,252.95
2023-01-08T02:20:51.091Z,232.80
2023-01-08T02:23:32.718Z,208.57
2023-01-08T02:26:18.537Z,185.88
2023-01-08T02:28:55.059Z,233.30
2023-01-08T02:31:28.327Z,248.43
2023-01-08T02:33:58.067Z,259.85
2023-01-08T02:36:42.610Z,269.02
2023-01-08T02:39:36.747Z,242.38
2023-01-08T02:42:17.487Z,282.20
2023-01-08T02:45:07.634Z,276.88
2023-01-08T02:47:46.636Z,189.27
2023-01-08T02:50:22.855Z,99.90
2023-01-08T02:53:04.327Z,103.82
2023-01-08T02:55:36.601Z,101.55
2023-01-08T02:58:09.617Z,99.63
2023-01-08T03:00:40.982Z,117.20
2023-01-08T03:03:13.509Z,94.75
2023-01-08T03:05:45.050Z,94.35
2023-01-08T03:08:15.138Z,91.60
2023-01-08T03:10:47.244Z,99.47
2023-01-08T03:13:25.411Z,100.30
2023-01-08T03:15:59.567Z,219.65
2023-01-08T03:18:34.183Z,166.88
2023-01-08T03:21:04.811Z,198.65
2023-01-08T03:23:34.562Z,264.92
2023-01-08T03:26:04.751Z,266.25
2023-01-08T03:28:44.029Z,98.05
2023-01-08T03:31:16.505Z,104.60
2023-01-08T03:33:49.438Z,102.45
2023-01-08T03:36:23.207Z,97.57
2023-01-08T03:38:59.257Z,101.00
2023-01-08T03:41:32.169Z,97.70
2023-01-08T03:44:03.452Z,99.07
2023-01-08T03:46:36.621Z,217.25
2023-01-08T03:51:41.865Z,241.65
2023-01-08T03:54:15.548Z,223.27
2023-01-08T03:56:45.410Z,251.13
2023-01-08T03:59:17.091Z,133.07
2023-01-08T04:01:46.552Z,95.45
2023-01-08T04:04:16.236Z,207.65
2023-01-08T04:06:44.571Z,100.88
2023-01-08T04:09:13.998Z,97.60
2023-01-08T04:11:42.637Z,96.75
2023-01-08T04:14:12.342Z,97.20
2023-01-08T04:16:41.868Z,101.25
2023-01-08T04:19:11.958Z,94.88
2023-01-08T04:21:40.243Z,95.72
2023-01-08T04:24:09.865Z,97.03
2023-01-08T04:26:37.974Z,96.93
2023-01-08T04:29:07.614Z,106.15
2023-01-08T04:31:36.938Z,101.43
2023-01-08T04:34:07.609Z,99.15
2023-01-08T04:36:36.976Z,131.23
2023-01-08T04:39:06.654Z,95.88
2023-01-08T04:41:35.991Z,105.32
2023-01-08T04:44:04.890Z,105.97
2023-01-08T04:46:34.323Z,133.27
2023-01-08T04:49:02.566Z,140.45
2023-01-08T04:51:32.005Z,169.05
2023-01-08T04:54:02.503Z,154.00
2023-01-08T04:56:32.575Z,100.65
2023-01-08T04:59:03.500Z,107.82
2023-01-08T05:01:31.833Z,101.53
2023-01-08T05:04:04.584Z,105.75
2023-01-08T05:06:35.337Z,98.80
2023-01-08T05:09:06.508Z,100.15
2023-01-08T05:11:35.675Z,151.32
2023-01-08T05:14:05.414Z,104.07
2023-01-08T05:16:33.557Z,100.97
2023-01-08T05:19:02.870Z,102.13
2023-01-08T05:21:32.296Z,100.55
2023-01-08T05:24:03.024Z,98.07
2023-01-08T05:26:32.396Z,98.97
2023-01-08T05:29:00.549Z,95.05
2023-01-08T05:31:28.692Z,100.13
2023-01-08T05:34:00.219Z,100.35
2023-01-08T05:36:31.094Z,195.65
2023-01-08T05:39:03.005Z,133.35
2023-01-08T05:41:31.557Z,98.72
2023-01-08T05:44:01.664Z,98.03
2023-01-08T05:46:31.074Z,90.82
2023-01-08T05:49:00.448Z,105.25
2023-01-08T05:51:29.773Z,118.78
2023-01-08T05:54:00.348Z,216.02
2023-01-08T05:56:31.040Z,99.30
2023-01-08T05:59:01.551Z,127.93
2023-01-08T06:01:29.780Z,97.00
2023-01-08T06:03:59.712Z,112.20
2023-01-08T06:06:29.066Z,98.03
2023-01-08T06:08:58.762Z,142.52
2023-01-08T06:11:26.901Z,218.55
2023-01-08T06:13:57.598Z,131.82
2023-01-08T06:16:27.019Z,124.63
2023-01-08T06:18:55.164Z,91.30
2023-01-08T06:21:24.519Z,152.23
2023-01-08T06:23:55.381Z,138.45
2023-01-08T06:26:23.578Z,98.68
2023-01-08T06:28:52.917Z,98.55
2023-01-08T06:31:22.429Z,95.63
2023-01-08T06:33:51.887Z,97.00
2023-01-08T06:36:21.212Z,176.55
2023-01-08T06:38:50.567Z,187.73
2023-01-08T06:41:20.291Z,210.10
2023-01-08T06:43:49.699Z,217.82
2023-01-08T06:46:19.325Z,133.02
2023-01-08T06:48:50.016Z,107.82
2023-01-08T06:51:18.238Z,92.65
2023-01-08T06:53:50.485Z,127.10
2023-01-08T06:56:19.769Z,109.32
2023-01-08T06:58:49.123Z,153.15
2023-01-08T07:01:18.989Z,74.85
2023-01-08T07:03:50.270Z,96.25
2023-01-08T07:06:22.134Z,101.17
2023-01-08T07:08:51.910Z,190.93
2023-01-08T07:11:20.077Z,138.40
2023-01-08T07:13:48.560Z,151.00
2023-01-08T07:16:17.952Z,98.88
2023-01-08T07:18:46.071Z,96.78
2023-01-08T07:21:18.331Z,97.88
2023-01-08T07:23:50.055Z,110.70
2023-01-08T07:26:19.912Z,95.15
2023-01-08T07:28:48.040Z,141.93
2023-01-08T07:31:17.389Z,96.18
2023-01-08T07:33:45.661Z,131.07
2023-01-08T07:36:15.214Z,96.13
2023-01-08T07:38:45.838Z,100.22
2023-01-08T07:41:16.383Z,90.38
2023-01-08T07:43:48.154Z,127.75
2023-01-08T07:46:16.652Z,74.20
2023-01-08T07:48:44.814Z,99.65
2023-01-08T07:51:12.983Z,98.75
2023-01-08T07:53:41.274Z,94.25
2023-01-08T07:56:13.633Z,96.88
2023-01-08T07:58:41.774Z,120.90
2023-01-08T08:01:12.291Z,105.68
2023-01-08T08:03:42.494Z,92.40
2023-01-08T08:06:12.334Z,113.97
2023-01-08T08:08:42.382Z,94.97
2023-01-08T08:11:13.193Z,97.65
2023-01-08T08:13:44.814Z,94.05
2023-01-08T08:16:15.511Z,100.30
2023-01-08T08:18:44.895Z,93.15
2023-01-08T08:21:15.932Z,98.78
2023-01-08T08:23:45.237Z,97.82
2023-01-08T08:26:15.944Z,100.35
2023-01-08T08:28:45.419Z,91.45
2023-01-08T08:31:14.937Z,103.93
2023-01-08T08:33:43.288Z,130.00
2023-01-08T08:36:11.597Z,176.32
2023-01-08T08:38:41.282Z,97.43
2023-01-08T08:41:10.644Z,172.77
2023-01-08T08:43:41.387Z,203.13
2023-01-08T08:46:12.080Z,90.55
2023-01-08T08:48:40.270Z,92.38
2023-01-08T08:51:09.705Z,104.78
2023-01-08T08:53:39.184Z,96.72
2023-01-08T08:56:10.393Z,151.93
2023-01-08T08:58:39.109Z,95.53
2023-01-08T09:01:11.053Z,96.80
2023-01-08T09:03:40.799Z,157.80
2023-01-08T09:06:15.159Z,101.13
2023-01-08T09:08:44.885Z,100.70
2023-01-08T09:11:15.431Z,100.57
2023-01-08T09:13:44.824Z,131.98
2023-01-08T09:16:15.630Z,95.60
2023-01-08T09:18:45.694Z,95.55
2023-01-08T09:21:16.209Z,115.55
2023-01-08T09:23:44.323Z,175.23
2023-01-08T09:26:14.885Z,173.77
2023-01-08T09:28:43.034Z,151.52
2023-01-08T09:31:12.564Z,98.68
2023-01-08T09:33:43.435Z,96.45
2023-01-08T09:36:13.891Z,99.18
2023-01-08T09:38:43.179Z,95.55
2023-01-08T09:41:19.041Z,97.50
2023-01-08T09:43:51.822Z,130.35
2023-01-08T09:46:26.804Z,101.63
2023-01-08T09:49:05.697Z,101.50
2023-01-08T09:51:38.677Z,100.40
2023-01-08T09:54:10.866Z,108.70
2023-01-08T09:56:40.871Z,96.60
2023-01-08T09:59:17.495Z,117.63
2023-01-08T10:01:50.041Z,80.03
2023-01-08T10:04:23.417Z,173.73
2023-01-08T10:06:58.637Z,203.70
2023-01-08T10:09:30.608Z,57.75
2023-01-08T10:12:05.204Z,140.50
2023-01-08T10:14:39.824Z,122.13
2023-01-08T10:17:18.286Z,94.50
2023-01-08T10:19:47.909Z,172.80
2023-01-08T10:22:21.723Z,211.10
2023-01-08T10:24:51.551Z,215.85
2023-01-08T10:27:23.393Z,168.20
2023-01-08T10:29:54.483Z,164.52
2023-01-08T10:32:29.844Z,203.55
2023-01-08T10:35:01.409Z,240.68
2023-01-08T10:37:38.080Z,176.85
2023-01-08T10:40:22.156Z,297.23
2023-01-08T10:42:52.050Z,199.70
2023-01-08T10:45:23.052Z,263.38
2023-01-08T10:47:58.137Z,258.38
2023-01-08T10:50:33.393Z,222.57
2023-01-08T10:53:03.892Z,242.45
2023-01-08T10:55:37.526Z,285.95
2023-01-08T10:58:16.660Z,227.57
2023-01-08T11:00:48.017Z,220.20
2023-01-08T11:03:28.567Z,95.00
2023-01-08T11:06:00.911Z,101.05
2023-01-08T11:08:29.229Z,130.90
2023-01-08T11:11:02.434Z,115.55
2023-01-08T11:13:31.130Z,302.42
2023-01-08T11:16:06.179Z,254.93
2023-01-08T11:18:47.129Z,349.70
2023-01-08T11:21:26.004Z,265.92
2023-01-08T11:24:16.278Z,256.08
2023-01-08T11:26:50.874Z,215.88
2023-01-08T11:29:30.067Z,162.52
2023-01-08T11:32:32.693Z,232.43
2023-01-08T11:35:05.192Z,293.08
2023-01-08T11:37:41.123Z,240.38
2023-01-08T11:40:17.769Z,273.00
2023-01-08T11:43:03.623Z,117.22
2023-01-08T11:45:46.053Z,93.38
2023-01-08T11:48:44.176Z,96.85
2023-01-08T11:51:41.543Z,94.00
2023-01-08T11:54:25.407Z,61.15
2023-01-08T11:57:18.587Z,62.70
2023-01-08T12:00:16.592Z,62.75
2023-01-08T12:02:56.905Z,69.40
2023-01-08T12:05:32.390Z,105.18
2023-01-08T12:08:06.640Z,101.25
2023-01-08T12:10:52.634Z,101.28
2023-01-08T12:13:37.715Z,100.32
2023-01-08T12:16:26.492Z,102.30
2023-01-08T12:19:18.464Z,145.43
2023-01-08T12:22:07.599Z,105.95
2023-01-08T12:25:00.631Z,117.63
2023-01-08T12:27:58.940Z,130.95
2023-01-08T12:30:45.726Z,192.52
2023-01-08T12:33:33.869Z,716.15
2023-01-08T12:36:07.895Z,335.48
2023-01-08T12:38:40.858Z,404.48
2023-01-08T12:41:15.291Z,319.17
2023-01-08T12:43:55.116Z,249.93
2023-01-08T12:46:25.964Z,425.55
2023-01-08T12:48:57.661Z,303.25
2023-01-08T12:51:34.760Z,359.60
2023-01-08T12:54:17.192Z,393.98
2023-01-08T12:56:56.375Z,350.55
2023-01-08T12:59:43.649Z,391.58
2023-01-08T13:02:28.158Z,954.85
2023-01-08T13:04:56.481Z,419.73
2023-01-08T13:07:31.657Z,529.67
2023-01-08T13:10:07.012Z,681.78
2023-01-08T13:12:40.067Z,246.48
2023-01-08T13:15:20.967Z,263.90
2023-01-08T13:17:51.599Z,491.45
2023-01-08T13:20:25.907Z,236.65
2023-01-08T13:22:55.889Z,364.92
2023-01-08T13:25:33.923Z,239.10
2023-01-08T13:28:26.952Z,301.95
2023-01-08T13:31:10.420Z,308.88
2023-01-08T13:33:43.383Z,552.80
2023-01-08T13:36:26.990Z,239.95
2023-01-08T13:39:22.168Z,263.17
2023-01-08T13:42:21.483Z,246.60
2023-01-08T13:44:53.498Z,239.13
2023-01-08T13:47:33.605Z,234.35
2023-01-08T13:50:06.750Z,268.58
2023-01-08T13:52:45.075Z,260.02
2023-01-08T13:55:18.572Z,271.13
2023-01-08T13:57:55.223Z,370.42
2023-01-08T14:00:30.717Z,366.15
2023-01-08T14:03:02.697Z,773.38
2023-01-08T14:05:34.684Z,857.28
2023-01-08T14:08:04.224Z,548.35
2023-01-08T14:10:32.813Z,909.97
2023-01-08T14:13:10.965Z,914.05
2023-01-08T14:15:40.785Z,878.70
2023-01-08T14:18:15.686Z,724.70
2023-01-08T14:20:49.925Z,627.92
2023-01-08T14:23:24.633Z,231.93
2023-01-08T14:25:53.578Z,200.85
2023-01-08T14:28:25.676Z,265.75
2023-01-08T14:30:56.880Z,272.67
2023-01-08T14:33:33.159Z,269.60
2023-01-08T14:36:06.163Z,306.00
2023-01-08T14:38:34.416Z,268.95
2023-01-08T14:41:06.278Z,163.77
2023-01-08T14:43:41.279Z,92.90
2023-01-08T14:46:21.157Z,109.82
2023-01-08T14:48:54.479Z,102.80
2023-01-08T14:51:26.676Z,106.50
2023-01-08T14:54:00.534Z,100.18
2023-01-08T14:56:34.309Z,103.55
2023-01-08T14:59:09.871Z,102.00
2023-01-08T15:01:41.106Z,97.13
2023-01-08T15:04:18.625Z,238.27
2023-01-08T15:06:47.426Z,102.07
2023-01-08T15:09:24.236Z,99.82
2023-01-08T15:11:56.912Z,102.68
2023-01-08T15:14:26.935Z,93.05
2023-01-08T15:16:58.169Z,83.30
2023-01-08T15:19:32.466Z,97.68
2023-01-08T15:22:03.538Z,103.43
2023-01-08T15:24:36.563Z,97.78
2023-01-08T15:27:11.734Z,100.28
2023-01-08T15:29:50.142Z,109.47
2023-01-08T15:32:25.340Z,101.10
2023-01-08T15:34:54.866Z,110.90
2023-01-08T15:37:24.742Z,105.75
2023-01-08T15:39:53.310Z,105.38
2023-01-08T15:42:42.336Z,104.85
2023-01-08T15:45:15.403Z,110.47
2023-01-08T15:47:43.559Z,106.85
2023-01-08T15:50:13.668Z,109.22
2023-01-08T15:52:44.517Z,106.40
2023-01-08T15:55:19.337Z,105.82
2023-01-08T15:57:49.093Z,105.72
2023-01-08T16:00:20.053Z,103.93
2023-01-08T16:05:22.850Z,105.25
2023-01-08T16:07:52.449Z,102.60
2023-01-08T16:10:21.810Z,102.40
2023-01-08T16:12:52.413Z,101.45
2023-01-08T16:15:22.686Z,103.13
2023-01-08T16:17:53.413Z,103.05
2023-01-08T16:20:24.073Z,97.63
2023-01-08T16:22:55.903Z,98.40
2023-01-08T16:25:25.181Z,100.82
2023-01-08T16:27:56.093Z,101.53
2023-01-08T16:30:26.667Z,268.55
2023-01-08T16:32:56.297Z,93.63
2023-01-08T16:35:27.025Z,103.20
2023-01-08T16:37:56.973Z,96.00
2023-01-08T16:40:26.301Z,95.82
2023-01-08T16:43:02.092Z,93.53
2023-01-08T16:45:31.519Z,92.03
2023-01-08T16:48:02.051Z,169.18
2023-01-08T16:50:33.859Z,95.25
2023-01-08T16:53:02.094Z,95.60
2023-01-08T16:55:31.482Z,94.18
2023-01-08T16:58:00.941Z,212.60
2023-01-08T17:00:29.171Z,190.15
2023-01-08T17:02:58.679Z,101.90
2023-01-08T17:05:26.795Z,92.70
2023-01-08T17:07:59.454Z,94.88
2023-01-08T17:10:28.832Z,92.95
2023-01-08T17:12:58.272Z,92.55
2023-01-08T17:15:27.623Z,143.95
2023-01-08T17:17:59.660Z,207.85
2023-01-08T17:20:29.245Z,94.53
2023-01-08T17:23:02.656Z,288.05
2023-01-08T17:25:32.141Z,211.90
2023-01-08T17:28:01.536Z,210.65
2023-01-08T17:30:30.890Z,436.70
2023-01-08T17:32:59.203Z,308.98
2023-01-08T17:35:28.984Z,306.85
2023-01-08T17:37:57.182Z,205.48
2023-01-08T17:40:27.961Z,182.07
2023-01-08T17:42:57.947Z,95.25
2023-01-08T17:45:27.675Z,95.93
2023-01-08T17:47:55.810Z,106.50
2023-01-08T17:50:25.145Z,123.32
2023-01-08T17:52:56.039Z,195.50
2023-01-08T17:55:26.788Z,182.05
2023-01-08T17:57:56.105Z,427.88
2023-01-08T18:00:25.097Z,459.00
2023-01-08T18:02:56.282Z,93.82
2023-01-08T18:05:24.428Z,93.45
2023-01-08T18:07:55.047Z,191.25
2023-01-08T18:10:23.551Z,210.77
2023-01-08T18:12:54.629Z,168.65
2023-01-08T18:15:22.782Z,97.35
2023-01-08T18:17:52.588Z,97.13
2023-01-08T18:20:21.013Z,367.38
2023-01-08T18:22:52.386Z,429.63
2023-01-08T18:25:20.654Z,678.40
2023-01-08T18:27:49.964Z,206.00
2023-01-08T18:30:19.664Z,100.22
2023-01-08T18:32:50.224Z,99.47
2023-01-08T18:35:19.572Z,99.95
2023-01-08T18:37:49.272Z,97.18
2023-01-08T18:40:18.148Z,95.82
2023-01-08T18:42:49.936Z,95.28
2023-01-08T18:45:19.614Z,93.95
2023-01-08T18:47:49.006Z,97.70
2023-01-08T18:50:17.821Z,94.13
2023-01-08T18:52:47.121Z,111.70
2023-01-08T18:55:15.230Z,90.47
2023-01-08T18:57:46.797Z,88.88
2023-01-08T19:00:16.823Z,94.45
2023-01-08T19:02:48.761Z,93.95
2023-01-08T19:05:17.753Z,93.88
2023-01-08T19:07:48.620Z,539.28
2023-01-08T19:10:18.258Z,813.55
2023-01-08T19:12:49.343Z,796.88
2023-01-08T19:15:17.852Z,658.65
2023-01-08T19:17:48.563Z,603.95
2023-01-08T19:20:16.965Z,486.55
2023-01-08T19:22:45.214Z,447.63
2023-01-08T19:25:15.038Z,94.45
2023-01-08T19:27:45.663Z,92.55
2023-01-08T19:30:14.329Z,94.65
2023-01-08T19:32:44.137Z,90.28
2023-01-08T19:35:14.926Z,91.00
2023-01-08T19:37:44.307Z,89.32
2023-01-08T19:40:14.599Z,89.68
2023-01-08T19:43:02.861Z,87.38
2023-01-08T19:45:31.396Z,89.45
2023-01-08T19:48:02.005Z,88.03
2023-01-08T19:50:34.115Z,123.70
2023-01-08T19:55:33.118Z,89.40
2023-01-08T19:58:02.470Z,85.70
2023-01-08T20:00:37.025Z,87.07
2023-01-08T20:03:06.614Z,88.22
2023-01-08T20:05:36.072Z,91.57
2023-01-08T20:08:06.088Z,92.78
2023-01-08T20:10:35.405Z,89.40
2023-01-08T20:13:04.156Z,93.63
2023-01-08T20:15:32.448Z,86.90
2023-01-08T20:18:01.848Z,87.32
2023-01-08T20:20:30.012Z,86.13
2023-01-08T20:23:00.789Z,88.55
2023-01-08T20:25:30.225Z,88.10
2023-01-08T20:27:59.607Z,92.88
2023-01-08T20:30:29.153Z,95.47
2023-01-08T20:32:59.724Z,93.85
2023-01-08T20:35:29.024Z,98.90
2023-01-08T20:37:57.148Z,92.28
2023-01-08T20:40:27.091Z,91.57
2023-01-08T20:42:56.370Z,97.30
2023-01-08T20:45:25.951Z,91.28
2023-01-08T20:47:54.450Z,91.28
2023-01-08T20:50:23.193Z,105.95
2023-01-08T20:52:51.688Z,91.90
2023-01-08T20:55:23.143Z,91.05
2023-01-08T20:57:52.622Z,86.47
2023-01-08T21:00:22.034Z,87.55
2023-01-08T21:02:50.181Z,86.90
2023-01-08T21:05:20.762Z,85.68
2023-01-08T21:07:50.075Z,86.15
2023-01-08T21:10:21.155Z,86.85
2023-01-08T21:12:49.301Z,91.30
2023-01-08T21:15:22.939Z,95.35
2023-01-08T21:17:52.396Z,86.07
2023-01-08T21:20:20.786Z,85.63
2023-01-08T21:22:48.916Z,90.13
2023-01-08T21:25:20.233Z,89.97
2023-01-08T21:27:49.572Z,96.28
2023-01-08T21:30:20.865Z,92.00
2023-01-08T21:32:50.244Z,91.13
2023-01-08T21:35:18.811Z,87.70
2023-01-08T21:37:47.327Z,89.53
2023-01-08T21:40:16.887Z,91.75
2023-01-08T21:43:03.180Z,91.15
2023-01-08T21:45:33.973Z,90.22
2023-01-08T21:48:03.374Z,93.20
2023-01-08T21:50:31.615Z,90.20
2023-01-08T21:53:18.741Z,93.50
2023-01-08T21:55:48.147Z,89.55
2023-01-08T21:58:17.479Z,92.10
2023-01-08T22:00:49.440Z,90.85
2023-01-08T22:03:19.238Z,91.13
2023-01-08T22:05:57.828Z,91.63
2023-01-08T22:08:28.102Z,89.20
2023-01-08T22:10:59.008Z,90.82
2023-01-08T22:13:28.631Z,124.28
2023-01-08T22:16:08.954Z,93.25
2023-01-08T22:18:37.877Z,91.20
2023-01-08T22:21:08.966Z,103.35
2023-01-08T22:23:38.499Z,107.90
2023-01-08T22:26:09.004Z,95.32
2023-01-08T22:28:39.203Z,93.07
2023-01-08T22:31:10.669Z,102.38
2023-01-08T22:33:40.656Z,217.13
2023-01-08T22:36:12.093Z,245.00
2023-01-08T22:38:42.059Z,195.88
2023-01-08T22:41:19.451Z,94.25
2023-01-08T22:43:48.798Z,90.85
2023-01-08T22:46:18.325Z,91.18
2023-01-08T22:48:47.690Z,89.95
2023-01-08T22:51:17.169Z,115.93
2023-01-08T22:53:46.249Z,101.63
2023-01-08T22:56:15.814Z,89.28
2023-01-08T22:58:45.377Z,150.05
2023-01-08T23:01:17.960Z,678.83
2023-01-08T23:03:51.055Z,757.45
2023-01-08T23:06:24.234Z,815.35
2023-01-08T23:08:55.557Z,801.88
2023-01-08T23:11:26.947Z,787.30
2023-01-08T23:13:55.521Z,214.07
2023-01-08T23:16:25.816Z,103.18
2023-01-08T23:18:56.002Z,91.00
2023-01-08T23:21:27.844Z,90.57
2023-01-08T23:23:58.912Z,95.57
2023-01-08T23:26:30.573Z,100.07
2023-01-08T23:29:01.840Z,94.95
2023-01-08T23:31:32.448Z,93.17
2023-01-08T23:34:04.454Z,93.60
2023-01-08T23:36:32.992Z,93.78
2023-01-08T23:39:01.551Z,95.22
2023-01-08T23:41:35.331Z,96.03
2023-01-08T23:44:09.261Z,94.70
2023-01-08T23:46:37.633Z,93.82
2023-01-08T23:49:10.063Z,95.82
2023-01-08T23:51:42.143Z,92.50
2023-01-08T23:54:12.271Z,92.85
2023-01-08T23:56:43.779Z,103.35
2023-01-08T23:59:13.500Z,97.57
